sensor_id;sensor_type;location;lat;lon;timestamp;pressure;altitude;pressure_sealevel;temperature;humidity
44675;BME280;30388;52.038;-1.478;2022-12-24T00:01:17;65515.74;;;7.66;100.00
44675;BME280;30388;52.038;-1.478;2022-12-24T00:03:44;65511.93;;;7.89;100.00
44675;BME280;30388;52.038;-1.478;2022-12-24T00:06:15;65462.39;;;7.48;100.00
44675;BME280;30388;52.038;-1.478;2022-12-24T00:08:42;65561.48;;;8.73;100.00
44675;BME280;30388;52.038;-1.478;2022-12-24T00:11:09;65539.12;;;7.96;100.00
44675;BME280;30388;52.038;-1.478;2022-12-24T00:13:37;65464.13;;;7.50;100.00
44675;BME280;30388;52.038;-1.478;2022-12-24T00:16:05;65417.00;;;7.39;100.00
44675;BME280;30388;52.038;-1.478;2022-12-24T00:18:37;65507.19;;;8.03;100.00
44675;BME280;30388;52.038;-1.478;2022-12-24T00:21:05;65525.85;;;8.29;100.00
44675;BME280;30388;52.038;-1.478;2022-12-24T00:23:33;65399.83;;;6.90;100.00
44675;BME280;30388;52.038;-1.478;2022-12-24T00:26:00;65404.71;;;7.72;100.00
44675;BME280;30388;52.038;-1.478;2022-12-24T00:28:27;65350.98;;;6.56;100.00
44675;BME280;30388;52.038;-1.478;2022-12-24T00:31:06;65305.03;;;5.97;100.00
44675;BME280;30388;52.038;-1.478;2022-12-24T00:33:34;65353.62;;;6.81;100.00
44675;BME280;30388;52.038;-1.478;2022-12-24T00:36:01;65397.30;;;7.14;100.00
44675;BME280;30388;52.038;-1.478;2022-12-24T00:38:29;65455.24;;;7.88;100.00
44675;BME280;30388;52.038;-1.478;2022-12-24T00:40:58;65387.61;;;7.02;100.00
44675;BME280;30388;52.038;-1.478;2022-12-24T00:43:26;65381.11;;;7.16;100.00
44675;BME280;30388;52.038;-1.478;2022-12-24T00:45:53;65428.09;;;7.53;100.00
44675;BME280;30388;52.038;-1.478;2022-12-24T00:48:19;65483.53;;;7.97;100.00
44675;BME280;30388;52.038;-1.478;2022-12-24T00:50:47;65505.17;;;8.24;100.00
44675;BME280;30388;52.038;-1.478;2022-12-24T00:53:14;65499.09;;;8.17;100.00
44675;BME280;30388;52.038;-1.478;2022-12-24T00:55:42;65465.03;;;7.73;100.00
44675;BME280;30388;52.038;-1.478;2022-12-24T00:58:08;65511.55;;;8.10;100.00
44675;BME280;30388;52.038;-1.478;2022-12-24T01:00:36;65524.03;;;8.48;100.00
44675;BME280;30388;52.038;-1.478;2022-12-24T01:03:03;65511.72;;;8.10;100.00
44675;BME280;30388;52.038;-1.478;2022-12-24T01:05:31;65553.35;;;8.41;100.00
44675;BME280;30388;52.038;-1.478;2022-12-24T01:07:58;65455.79;;;7.62;100.00
44675;BME280;30388;52.038;-1.478;2022-12-24T01:10:25;65424.09;;;7.22;100.00
44675;BME280;30388;52.038;-1.478;2022-12-24T01:12:52;65398.77;;;7.16;100.00
44675;BME280;30388;52.038;-1.478;2022-12-24T01:15:20;65385.44;;;6.99;100.00
44675;BME280;30388;52.038;-1.478;2022-12-24T01:17:47;65498.70;;;7.94;100.00
44675;BME280;30388;52.038;-1.478;2022-12-24T01:20:16;65399.74;;;6.90;100.00
44675;BME280;30388;52.038;-1.478;2022-12-24T01:22:44;65432.08;;;7.58;100.00
44675;BME280;30388;52.038;-1.478;2022-12-24T01:25:11;65436.74;;;7.65;100.00
44675;BME280;30388;52.038;-1.478;2022-12-24T01:27:39;65382.75;;;7.18;100.00
44675;BME280;30388;52.038;-1.478;2022-12-24T01:30:08;65391.80;;;7.07;100.00
44675;BME280;30388;52.038;-1.478;2022-12-24T01:32:35;65455.25;;;7.61;100.00
44675;BME280;30388;52.038;-1.478;2022-12-24T01:35:02;65467.58;;;8.03;100.00
44675;BME280;30388;52.038;-1.478;2022-12-24T01:37:29;65428.27;;;7.53;100.00
44675;BME280;30388;52.038;-1.478;2022-12-24T01:39:56;65494.40;;;8.11;100.00
44675;BME280;30388;52.038;-1.478;2022-12-24T01:42:23;65457.75;;;7.90;100.00
44675;BME280;30388;52.038;-1.478;2022-12-24T01:44:52;65492.92;;;7.88;100.00
44675;BME280;30388;52.038;-1.478;2022-12-24T01:47:21;65447.83;;;7.79;100.00
44675;BME280;30388;52.038;-1.478;2022-12-24T01:49:54;65448.37;;;7.52;100.00
44675;BME280;30388;52.038;-1.478;2022-12-24T01:52:25;65506.63;;;8.26;100.00
44675;BME280;30388;52.038;-1.478;2022-12-24T01:54:58;65491.42;;;8.34;100.00
44675;BME280;30388;52.038;-1.478;2022-12-24T01:57:29;65444.56;;;7.73;100.00
44675;BME280;30388;52.038;-1.478;2022-12-24T02:00:01;65494.81;;;7.89;100.00
44675;BME280;30388;52.038;-1.478;2022-12-24T02:02:28;65455.29;;;7.61;100.00
44675;BME280;30388;52.038;-1.478;2022-12-24T02:05:00;65565.60;;;8.78;100.00
44675;BME280;30388;52.038;-1.478;2022-12-24T02:07:29;65628.18;;;9.09;100.00
44675;BME280;30388;52.038;-1.478;2022-12-24T02:09:58;65615.55;;;8.93;100.00
44675;BME280;30388;52.038;-1.478;2022-12-24T02:12:27;65610.81;;;8.88;100.00
44675;BME280;30388;52.038;-1.478;2022-12-24T02:14:56;65556.65;;;8.19;100.00
44675;BME280;30388;52.038;-1.478;2022-12-24T02:17:28;65494.42;;;7.88;100.00
44675;BME280;30388;52.038;-1.478;2022-12-24T02:20:14;65384.08;;;6.97;100.00
44675;BME280;30388;52.038;-1.478;2022-12-24T02:23:02;65480.29;;;7.92;100.00
44675;BME280;30388;52.038;-1.478;2022-12-24T02:25:44;65475.89;;;8.13;100.00
44675;BME280;30388;52.038;-1.478;2022-12-24T02:28:27;65478.48;;;7.90;100.00
44675;BME280;30388;52.038;-1.478;2022-12-24T02:31:03;65553.09;;;8.63;100.00
44675;BME280;30388;52.038;-1.478;2022-12-24T02:33:36;65534.14;;;8.38;100.00
44675;BME280;30388;52.038;-1.478;2022-12-24T02:36:11;65443.94;;;7.73;100.00
44675;BME280;30388;52.038;-1.478;2022-12-24T02:38:48;65431.21;;;7.30;100.00
44675;BME280;30388;52.038;-1.478;2022-12-24T02:41:21;65471.57;;;7.82;100.00
44675;BME280;30388;52.038;-1.478;2022-12-24T02:43:52;65514.95;;;8.37;100.00
44675;BME280;30388;52.038;-1.478;2022-12-24T02:46:24;65529.64;;;8.33;100.00
44675;BME280;30388;52.038;-1.478;2022-12-24T02:48:52;65507.06;;;8.05;100.00
44675;BME280;30388;52.038;-1.478;2022-12-24T02:51:22;65483.63;;;7.75;100.00
44675;BME280;30388;52.038;-1.478;2022-12-24T02:53:50;65406.64;;;6.98;100.00
44675;BME280;30388;52.038;-1.478;2022-12-24T02:56:28;65478.34;;;7.67;100.00
44675;BME280;30388;52.038;-1.478;2022-12-24T02:59:12;65463.52;;;7.71;100.00
44675;BME280;30388;52.038;-1.478;2022-12-24T03:01:51;65431.67;;;7.30;100.00
44675;BME280;30388;52.038;-1.478;2022-12-24T03:04:24;65511.05;;;8.09;100.00
44675;BME280;30388;52.038;-1.478;2022-12-24T03:07:01;65439.64;;;7.41;100.00
44675;BME280;30388;52.038;-1.478;2022-12-24T03:09:37;65566.52;;;8.57;100.00
44675;BME280;30388;52.038;-1.478;2022-12-24T03:12:09;65480.77;;;7.71;100.00
44675;BME280;30388;52.038;-1.478;2022-12-24T03:14:39;65514.29;;;7.91;100.00
44675;BME280;30388;52.038;-1.478;2022-12-24T03:17:08;65507.15;;;7.82;100.00
44675;BME280;30388;52.038;-1.478;2022-12-24T03:19:36;65415.53;;;6.88;100.00
44675;BME280;30388;52.038;-1.478;2022-12-24T03:22:07;65449.97;;;7.31;100.00
44675;BME280;30388;52.038;-1.478;2022-12-24T03:24:36;65466.06;;;7.52;100.00
44675;BME280;30388;52.038;-1.478;2022-12-24T03:27:03;65469.38;;;7.56;100.00
44675;BME280;30388;52.038;-1.478;2022-12-24T03:29:32;65478.84;;;7.68;100.00
44675;BME280;30388;52.038;-1.478;2022-12-24T03:32:02;65342.40;;;6.44;100.00
44675;BME280;30388;52.038;-1.478;2022-12-24T03:34:30;65430.13;;;7.29;100.00
44675;BME280;30388;52.038;-1.478;2022-12-24T03:36:58;65361.86;;;6.69;100.00
44675;BME280;30388;52.038;-1.478;2022-12-24T03:39:26;65398.35;;;6.89;100.00
44675;BME280;30388;52.038;-1.478;2022-12-24T03:41:52;65392.48;;;6.82;100.00
44675;BME280;30388;52.038;-1.478;2022-12-24T03:44:19;65395.82;;;7.12;100.00
44675;BME280;30388;52.038;-1.478;2022-12-24T03:46:47;65415.11;;;7.10;100.00
44675;BME280;30388;52.038;-1.478;2022-12-24T03:49:14;65415.21;;;7.10;100.00
44675;BME280;30388;52.038;-1.478;2022-12-24T03:51:41;65397.43;;;7.13;100.00
44675;BME280;30388;52.038;-1.478;2022-12-24T03:54:08;65349.46;;;6.53;100.00
44675;BME280;30388;52.038;-1.478;2022-12-24T03:56:35;65392.73;;;7.08;100.00
44675;BME280;30388;52.038;-1.478;2022-12-24T03:59:02;65411.29;;;7.32;100.00
44675;BME280;30388;52.038;-1.478;2022-12-24T04:01:29;65448.18;;;7.51;100.00
44675;BME280;30388;52.038;-1.478;2022-12-24T04:03:56;65335.81;;;6.36;100.00
44675;BME280;30388;52.038;-1.478;2022-12-24T04:06:23;65309.25;;;6.51;100.00
44675;BME280;30388;52.038;-1.478;2022-12-24T04:08:50;65299.32;;;6.12;100.00
44675;BME280;30388;52.038;-1.478;2022-12-24T04:11:18;65315.37;;;6.10;100.00
44675;BME280;30388;52.038;-1.478;2022-12-24T04:13:45;65354.43;;;6.60;100.00
44675;BME280;30388;52.038;-1.478;2022-12-24T04:16:14;65312.03;;;6.06;100.00
44675;BME280;30388;52.038;-1.478;2022-12-24T04:18:41;65339.65;;;6.41;100.00
44675;BME280;30388;52.038;-1.478;2022-12-24T04:21:10;65303.99;;;5.96;100.00
44675;BME280;30388;52.038;-1.478;2022-12-24T04:23:39;65374.07;;;6.84;100.00
44675;BME280;30388;52.038;-1.478;2022-12-24T04:26:08;65359.89;;;6.66;100.00
44675;BME280;30388;52.038;-1.478;2022-12-24T04:28:36;65435.09;;;7.35;100.00
44675;BME280;30388;52.038;-1.478;2022-12-24T04:31:06;65427.24;;;7.25;100.00
44675;BME280;30388;52.038;-1.478;2022-12-24T04:33:34;65350.14;;;6.54;100.00
44675;BME280;30388;52.038;-1.478;2022-12-24T04:36:03;65351.41;;;6.56;100.00
44675;BME280;30388;52.038;-1.478;2022-12-24T04:38:30;65401.91;;;7.20;100.00
44675;BME280;30388;52.038;-1.478;2022-12-24T04:40:59;65303.65;;;5.95;100.00
44675;BME280;30388;52.038;-1.478;2022-12-24T04:43:26;65271.01;;;6.03;100.00
44675;BME280;30388;52.038;-1.478;2022-12-24T04:45:54;65301.46;;;6.41;100.00
44675;BME280;30388;52.038;-1.478;2022-12-24T04:48:21;65270.58;;;6.02;100.00
44675;BME280;30388;52.038;-1.478;2022-12-24T04:50:49;65313.61;;;6.56;100.00
44675;BME280;30388;52.038;-1.478;2022-12-24T04:53:16;65289.63;;;6.00;100.00
44675;BME280;30388;52.038;-1.478;2022-12-24T04:55:45;65299.31;;;6.38;100.00
44675;BME280;30388;52.038;-1.478;2022-12-24T04:58:12;65370.39;;;6.80;100.00
44675;BME280;30388;52.038;-1.478;2022-12-24T05:00:40;65333.42;;;6.55;100.00
44675;BME280;30388;52.038;-1.478;2022-12-24T05:03:07;65372.17;;;6.83;100.00
44675;BME280;30388;52.038;-1.478;2022-12-24T05:05:35;65385.66;;;6.98;100.00
44675;BME280;30388;52.038;-1.478;2022-12-24T05:08:02;65393.06;;;6.81;100.00
44675;BME280;30388;52.038;-1.478;2022-12-24T05:10:30;65309.98;;;6.52;100.00
44675;BME280;30388;52.038;-1.478;2022-12-24T05:12:57;65350.34;;;6.54;100.00
44675;BME280;30388;52.038;-1.478;2022-12-24T05:15:25;65240.59;;;5.63;100.00
44675;BME280;30388;52.038;-1.478;2022-12-24T05:17:52;65234.42;;;5.56;100.00
44675;BME280;30388;52.038;-1.478;2022-12-24T05:20:20;65257.54;;;5.84;100.00
44675;BME280;30388;52.038;-1.478;2022-12-24T05:22:47;65349.19;;;6.53;100.00
44675;BME280;30388;52.038;-1.478;2022-12-24T05:25:14;65367.81;;;6.76;100.00
44675;BME280;30388;52.038;-1.478;2022-12-24T05:27:41;65327.02;;;6.73;100.00
44675;BME280;30388;52.038;-1.478;2022-12-24T05:30:09;65322.48;;;6.19;100.00
44675;BME280;30388;52.038;-1.478;2022-12-24T05:32:36;65345.94;;;6.48;100.00
44675;BME280;30388;52.038;-1.478;2022-12-24T05:35:03;65320.99;;;6.17;100.00
44675;BME280;30388;52.038;-1.478;2022-12-24T05:37:31;65300.97;;;5.91;100.00
44675;BME280;30388;52.038;-1.478;2022-12-24T05:39:58;65330.52;;;6.77;100.00
44675;BME280;30388;52.038;-1.478;2022-12-24T05:42:26;65297.49;;;6.36;100.00
44675;BME280;30388;52.038;-1.478;2022-12-24T05:44:53;65320.23;;;6.16;100.00
44675;BME280;30388;52.038;-1.478;2022-12-24T05:47:20;65290.28;;;6.26;100.00
44675;BME280;30388;52.038;-1.478;2022-12-24T05:49:47;65280.61;;;5.87;100.00
44675;BME280;30388;52.038;-1.478;2022-12-24T05:52:14;65395.61;;;7.11;100.00
44675;BME280;30388;52.038;-1.478;2022-12-24T05:54:42;65343.62;;;6.46;100.00
44675;BME280;30388;52.038;-1.478;2022-12-24T05:57:10;65360.72;;;6.67;100.00
44675;BME280;30388;52.038;-1.478;2022-12-24T05:59:37;65417.26;;;7.38;100.00
44675;BME280;30388;52.038;-1.478;2022-12-24T06:02:04;65438.51;;;7.39;100.00
44675;BME280;30388;52.038;-1.478;2022-12-24T06:04:31;65421.57;;;7.44;100.00
44675;BME280;30388;52.038;-1.478;2022-12-24T06:06:58;65484.72;;;7.75;100.00
44675;BME280;30388;52.038;-1.478;2022-12-24T06:09:26;65454.16;;;7.58;100.00
44675;BME280;30388;52.038;-1.478;2022-12-24T06:11:53;65405.90;;;6.98;100.00
44675;BME280;30388;52.038;-1.478;2022-12-24T06:14:20;65361.85;;;6.68;100.00
44675;BME280;30388;52.038;-1.478;2022-12-24T06:16:47;65455.96;;;7.38;100.00
44675;BME280;30388;52.038;-1.478;2022-12-24T06:19:14;65425.41;;;7.22;100.00
44675;BME280;30388;52.038;-1.478;2022-12-24T06:21:41;65471.59;;;7.59;100.00
44675;BME280;30388;52.038;-1.478;2022-12-24T06:24:09;65469.94;;;7.79;100.00
44675;BME280;30388;52.038;-1.478;2022-12-24T06:26:36;65445.90;;;7.26;100.00
44675;BME280;30388;52.038;-1.478;2022-12-24T06:29:04;65419.93;;;7.16;100.00
44675;BME280;30388;52.038;-1.478;2022-12-24T06:31:32;65450.94;;;7.33;100.00
44675;BME280;30388;52.038;-1.478;2022-12-24T06:33:58;65443.67;;;7.46;100.00
44675;BME280;30388;52.038;-1.478;2022-12-24T06:36:26;65397.93;;;7.15;100.00
44675;BME280;30388;52.038;-1.478;2022-12-24T06:38:54;65357.88;;;6.63;100.00
44675;BME280;30388;52.038;-1.478;2022-12-24T06:41:21;65362.44;;;6.42;100.00
44675;BME280;30388;52.038;-1.478;2022-12-24T06:43:50;65323.66;;;6.69;100.00
44675;BME280;30388;52.038;-1.478;2022-12-24T06:46:17;65272.36;;;5.77;100.00
44675;BME280;30388;52.038;-1.478;2022-12-24T06:48:45;65302.48;;;6.43;100.00
44675;BME280;30388;52.038;-1.478;2022-12-24T06:51:15;65302.81;;;6.42;100.00
44675;BME280;30388;52.038;-1.478;2022-12-24T06:53:43;65355.13;;;6.82;100.00
44675;BME280;30388;52.038;-1.478;2022-12-24T06:56:12;65327.79;;;6.25;100.00
44675;BME280;30388;52.038;-1.478;2022-12-24T06:58:39;65350.04;;;6.53;100.00
44675;BME280;30388;52.038;-1.478;2022-12-24T07:01:08;65346.06;;;6.49;100.00
44675;BME280;30388;52.038;-1.478;2022-12-24T07:03:36;65419.30;;;7.41;100.00
44675;BME280;30388;52.038;-1.478;2022-12-24T07:06:04;65405.45;;;7.23;100.00
44675;BME280;30388;52.038;-1.478;2022-12-24T07:08:32;65427.40;;;7.03;100.00
44675;BME280;30388;52.038;-1.478;2022-12-24T07:11:00;65434.79;;;7.12;100.00
44675;BME280;30388;52.038;-1.478;2022-12-24T07:13:27;65438.65;;;7.17;100.00
44675;BME280;30388;52.038;-1.478;2022-12-24T07:15:58;65356.49;;;6.62;100.00
44675;BME280;30388;52.038;-1.478;2022-12-24T07:18:26;65394.03;;;7.10;100.00
44675;BME280;30388;52.038;-1.478;2022-12-24T07:20:54;65403.71;;;7.21;100.00
44675;BME280;30388;52.038;-1.478;2022-12-24T07:23:21;65437.38;;;7.38;100.00
44675;BME280;30388;52.038;-1.478;2022-12-24T07:25:48;65445.96;;;7.76;100.00
44675;BME280;30388;52.038;-1.478;2022-12-24T07:28:16;65390.89;;;6.78;100.00
44675;BME280;30388;52.038;-1.478;2022-12-24T07:30:43;65343.36;;;6.66;100.00
44675;BME280;30388;52.038;-1.478;2022-12-24T07:33:10;65327.81;;;6.74;100.00
44675;BME280;30388;52.038;-1.478;2022-12-24T07:35:37;65302.19;;;6.42;100.00
44675;BME280;30388;52.038;-1.478;2022-12-24T07:38:04;65285.49;;;6.20;100.00
44675;BME280;30388;52.038;-1.478;2022-12-24T07:40:33;65233.84;;;5.55;100.00
44675;BME280;30388;52.038;-1.478;2022-12-24T07:43:00;65231.96;;;5.53;100.00
44675;BME280;30388;52.038;-1.478;2022-12-24T07:45:27;65270.85;;;6.02;100.00
44675;BME280;30388;52.038;-1.478;2022-12-24T07:47:54;65322.82;;;6.41;100.00
44675;BME280;30388;52.038;-1.478;2022-12-24T07:50:21;65347.18;;;6.50;100.00
44675;BME280;30388;52.038;-1.478;2022-12-24T07:52:48;65402.99;;;7.21;100.00
44675;BME280;30388;52.038;-1.478;2022-12-24T07:55:16;65395.41;;;7.11;100.00
44675;BME280;30388;52.038;-1.478;2022-12-24T07:57:43;65409.24;;;7.29;100.00
44675;BME280;30388;52.038;-1.478;2022-12-24T08:00:11;65404.96;;;7.24;100.00
44675;BME280;30388;52.038;-1.478;2022-12-24T08:02:38;65377.45;;;6.89;100.00
44675;BME280;30388;52.038;-1.478;2022-12-24T08:05:06;65302.96;;;6.43;100.00
44675;BME280;30388;52.038;-1.478;2022-12-24T08:07:33;65228.62;;;5.48;100.00
44675;BME280;30388;52.038;-1.478;2022-12-24T08:10:01;65283.96;;;6.20;100.00
44675;BME280;30388;52.038;-1.478;2022-12-24T08:12:28;65231.65;;;5.97;100.00
44675;BME280;30388;52.038;-1.478;2022-12-24T08:14:55;65258.92;;;6.31;100.00
44675;BME280;30388;52.038;-1.478;2022-12-24T08:17:22;65206.96;;;5.66;100.00
44675;BME280;30388;52.038;-1.478;2022-12-24T08:19:49;65190.55;;;5.45;100.00
44675;BME280;30388;52.038;-1.478;2022-12-24T08:22:17;65199.47;;;5.55;100.00
44675;BME280;30388;52.038;-1.478;2022-12-24T08:24:44;65181.11;;;5.33;100.00
44675;BME280;30388;52.038;-1.478;2022-12-24T08:27:11;65189.84;;;5.22;100.00
44675;BME280;30388;52.038;-1.478;2022-12-24T08:29:38;65252.82;;;5.79;100.00
44675;BME280;30388;52.038;-1.478;2022-12-24T08:32:05;65239.98;;;5.85;100.00
44675;BME280;30388;52.038;-1.478;2022-12-24T08:34:33;65236.78;;;5.59;100.00
44675;BME280;30388;52.038;-1.478;2022-12-24T08:37:00;65269.00;;;5.99;100.00
44675;BME280;30388;52.038;-1.478;2022-12-24T08:39:27;65241.95;;;5.65;100.00
44675;BME280;30388;52.038;-1.478;2022-12-24T08:41:55;65197.38;;;5.31;100.00
44675;BME280;30388;52.038;-1.478;2022-12-24T08:44:22;65224.75;;;5.88;100.00
44675;BME280;30388;52.038;-1.478;2022-12-24T08:46:49;65250.51;;;5.98;100.00
44675;BME280;30388;52.038;-1.478;2022-12-24T08:49:15;65325.35;;;6.71;100.00
44675;BME280;30388;52.038;-1.478;2022-12-24T08:51:43;65326.23;;;6.46;100.00
44675;BME280;30388;52.038;-1.478;2022-12-24T08:54:10;65316.21;;;6.60;100.00
44675;BME280;30388;52.038;-1.478;2022-12-24T08:56:37;65349.21;;;6.53;100.00
44675;BME280;30388;52.038;-1.478;2022-12-24T08:59:04;65345.81;;;6.71;100.00
44675;BME280;30388;52.038;-1.478;2022-12-24T09:01:32;65342.96;;;6.67;100.00
44675;BME280;30388;52.038;-1.478;2022-12-24T09:04:01;65264.26;;;5.94;100.00
44675;BME280;30388;52.038;-1.478;2022-12-24T09:06:28;65323.23;;;6.42;100.00
44675;BME280;30388;52.038;-1.478;2022-12-24T09:08:56;65320.98;;;6.66;100.00
44675;BME280;30388;52.038;-1.478;2022-12-24T09:11:23;65299.95;;;6.40;100.00
44675;BME280;30388;52.038;-1.478;2022-12-24T09:13:50;65335.27;;;6.35;100.00
44675;BME280;30388;52.038;-1.478;2022-12-24T09:16:18;65352.80;;;6.57;100.00
44675;BME280;30388;52.038;-1.478;2022-12-24T09:18:45;65395.34;;;7.11;100.00
44675;BME280;30388;52.038;-1.478;2022-12-24T09:21:14;65419.00;;;7.41;100.00
44675;BME280;30388;52.038;-1.478;2022-12-24T09:23:43;65400.22;;;6.92;100.00
44675;BME280;30388;52.038;-1.478;2022-12-24T09:26:18;65477.29;;;7.89;100.00
44675;BME280;30388;52.038;-1.478;2022-12-24T09:28:46;65501.92;;;7.98;100.00
44675;BME280;30388;52.038;-1.478;2022-12-24T09:31:14;65451.61;;;7.56;100.00
44675;BME280;30388;52.038;-1.478;2022-12-24T09:33:43;65436.94;;;7.37;100.00
44675;BME280;30388;52.038;-1.478;2022-12-24T09:36:11;65399.15;;;7.16;100.00
44675;BME280;30388;52.038;-1.478;2022-12-24T09:38:39;65362.58;;;6.70;100.00
44675;BME280;30388;52.038;-1.478;2022-12-24T09:41:13;65337.14;;;6.38;100.00
44675;BME280;30388;52.038;-1.478;2022-12-24T09:43:45;65352.85;;;6.57;100.00
44675;BME280;30388;52.038;-1.478;2022-12-24T09:46:19;65343.34;;;6.45;100.00
44675;BME280;30388;52.038;-1.478;2022-12-24T09:48:51;65387.60;;;7.02;100.00
44675;BME280;30388;52.038;-1.478;2022-12-24T09:51:25;65371.26;;;6.80;100.00
44675;BME280;30388;52.038;-1.478;2022-12-24T09:53:58;65323.77;;;6.42;100.00
44675;BME280;30388;52.038;-1.478;2022-12-24T09:56:29;65386.65;;;7.00;100.00
44675;BME280;30388;52.038;-1.478;2022-12-24T09:58:58;65370.56;;;6.53;100.00
44675;BME280;30388;52.038;-1.478;2022-12-24T10:01:29;65379.36;;;7.39;100.00
44675;BME280;30388;52.038;-1.478;2022-12-24T10:03:58;65444.17;;;7.46;100.00
44675;BME280;30388;52.038;-1.478;2022-12-24T10:06:31;65442.46;;;7.45;100.00
44675;BME280;30388;52.038;-1.478;2022-12-24T10:09:09;65507.04;;;8.04;100.00
44675;BME280;30388;52.038;-1.478;2022-12-24T10:11:44;65564.86;;;8.55;100.00
44675;BME280;30388;52.038;-1.478;2022-12-24T10:14:23;65524.41;;;8.04;100.00
44675;BME280;30388;52.038;-1.478;2022-12-24T10:17:00;65514.13;;;8.12;100.00
44675;BME280;30388;52.038;-1.478;2022-12-24T10:19:38;65579.97;;;8.47;100.00
44675;BME280;30388;52.038;-1.478;2022-12-24T10:22:15;65596.89;;;8.69;100.00
44675;BME280;30388;52.038;-1.478;2022-12-24T10:24:50;65636.28;;;9.19;100.00
44675;BME280;30388;52.038;-1.478;2022-12-24T10:27:24;65605.40;;;8.79;100.00
44675;BME280;30388;52.038;-1.478;2022-12-24T10:29:58;65469.42;;;7.56;100.00
44675;BME280;30388;52.038;-1.478;2022-12-24T10:32:29;65420.90;;;6.94;100.00
44675;BME280;30388;52.038;-1.478;2022-12-24T10:34:59;65534.98;;;8.40;100.00
44675;BME280;30388;52.038;-1.478;2022-12-24T10:37:28;65593.46;;;8.65;100.00
44675;BME280;30388;52.038;-1.478;2022-12-24T10:39:57;65618.77;;;8.96;100.00
44675;BME280;30388;52.038;-1.478;2022-12-24T10:42:27;65476.63;;;7.16;100.00
44675;BME280;30388;52.038;-1.478;2022-12-24T10:45:02;65568.25;;;8.32;100.00
44675;BME280;30388;52.038;-1.478;2022-12-24T10:47:32;65556.35;;;8.44;100.00
44675;BME280;30388;52.038;-1.478;2022-12-24T10:50:03;65570.38;;;8.35;100.00
44675;BME280;30388;52.038;-1.478;2022-12-24T10:52:34;65607.16;;;8.81;100.00
44675;BME280;30388;52.038;-1.478;2022-12-24T10:55:07;65581.92;;;8.50;100.00
44675;BME280;30388;52.038;-1.478;2022-12-24T10:57:35;65627.05;;;9.07;100.00
44675;BME280;30388;52.038;-1.478;2022-12-24T11:00:04;65519.18;;;7.70;100.00
44675;BME280;30388;52.038;-1.478;2022-12-24T11:02:34;65633.99;;;9.16;100.00
44675;BME280;30388;52.038;-1.478;2022-12-24T11:05:05;65586.02;;;8.56;100.00
44675;BME280;30388;52.038;-1.478;2022-12-24T11:07:33;65553.80;;;8.63;100.00
44675;BME280;30388;52.038;-1.478;2022-12-24T11:10:03;65525.72;;;8.28;100.00
44675;BME280;30388;52.038;-1.478;2022-12-24T11:12:32;65596.28;;;8.94;100.00
44675;BME280;30388;52.038;-1.478;2022-12-24T11:15:03;65489.12;;;7.59;100.00
44675;BME280;30388;52.038;-1.478;2022-12-24T11:17:32;65504.17;;;8.00;100.00
44675;BME280;30388;52.038;-1.478;2022-12-24T11:20:00;65558.17;;;8.47;100.00
44675;BME280;30388;52.038;-1.478;2022-12-24T11:22:30;65551.24;;;8.39;100.00
44675;BME280;30388;52.038;-1.478;2022-12-24T11:25:03;65531.19;;;8.13;100.00
44675;BME280;30388;52.038;-1.478;2022-12-24T11:27:39;65570.02;;;8.61;100.00
44675;BME280;30388;52.038;-1.478;2022-12-24T11:30:27;65648.72;;;9.35;100.00
44675;BME280;30388;52.038;-1.478;2022-12-24T11:33:28;65550.26;;;8.58;100.00
44675;BME280;30388;52.038;-1.478;2022-12-24T11:36:00;65414.54;;;7.09;100.00
44675;BME280;30388;52.038;-1.478;2022-12-24T11:38:31;65345.87;;;6.48;100.00
44675;BME280;30388;52.038;-1.478;2022-12-24T11:41:02;65420.29;;;7.43;100.00
44675;BME280;30388;52.038;-1.478;2022-12-24T11:43:37;65409.67;;;7.03;100.00
44675;BME280;30388;52.038;-1.478;2022-12-24T11:46:13;65372.08;;;7.31;100.00
44675;BME280;30388;52.038;-1.478;2022-12-24T11:48:41;65397.73;;;7.14;100.00
44675;BME280;30388;52.038;-1.478;2022-12-24T11:51:20;65368.65;;;6.77;100.00
44675;BME280;30388;52.038;-1.478;2022-12-24T11:53:50;65360.69;;;6.68;100.00
44675;BME280;30388;52.038;-1.478;2022-12-24T11:56:31;65296.20;;;5.85;100.00
44675;BME280;30388;52.038;-1.478;2022-12-24T11:59:06;65330.41;;;6.78;100.00
44675;BME280;30388;52.038;-1.478;2022-12-24T12:01:43;65253.36;;;5.79;100.00
44675;BME280;30388;52.038;-1.478;2022-12-24T12:04:17;65385.80;;;6.99;100.00
44675;BME280;30388;52.038;-1.478;2022-12-24T12:06:47;65418.92;;;7.41;100.00
44675;BME280;30388;52.038;-1.478;2022-12-24T12:09:20;65462.77;;;7.97;100.00
44675;BME280;30388;52.038;-1.478;2022-12-24T12:11:52;65436.14;;;7.63;100.00
44675;BME280;30388;52.038;-1.478;2022-12-24T12:14:26;65401.61;;;7.19;100.00
44675;BME280;30388;52.038;-1.478;2022-12-24T12:16:59;65398.12;;;7.37;100.00
44675;BME280;30388;52.038;-1.478;2022-12-24T12:19:34;65379.37;;;6.92;100.00
44675;BME280;30388;52.038;-1.478;2022-12-24T12:22:06;65396.78;;;7.13;100.00
44675;BME280;30388;52.038;-1.478;2022-12-24T12:24:41;65340.99;;;6.42;100.00
44675;BME280;30388;52.038;-1.478;2022-12-24T12:27:20;65390.67;;;6.78;100.00
44675;BME280;30388;52.038;-1.478;2022-12-24T12:29:56;65368.96;;;6.77;100.00
44675;BME280;30388;52.038;-1.478;2022-12-24T12:32:34;65372.68;;;7.31;100.00
44675;BME280;30388;52.038;-1.478;2022-12-24T12:35:09;65408.83;;;7.28;100.00
44675;BME280;30388;52.038;-1.478;2022-12-24T12:37:43;65362.06;;;6.92;100.00
44675;BME280;30388;52.038;-1.478;2022-12-24T12:40:13;65369.60;;;6.79;100.00
44675;BME280;30388;52.038;-1.478;2022-12-24T12:42:44;65460.97;;;7.68;100.00
44675;BME280;30388;52.038;-1.478;2022-12-24T12:45:29;65469.45;;;7.79;100.00
44675;BME280;30388;52.038;-1.478;2022-12-24T12:48:10;65519.92;;;8.69;100.00
44675;BME280;30388;52.038;-1.478;2022-12-24T12:50:45;65516.61;;;8.16;100.00
44675;BME280;30388;52.038;-1.478;2022-12-24T12:53:37;65470.30;;;7.79;100.00
44675;BME280;30388;52.038;-1.478;2022-12-24T12:56:19;65524.93;;;8.27;100.00
44675;BME280;30388;52.038;-1.478;2022-12-24T12:58:51;65507.62;;;8.26;100.00
44675;BME280;30388;52.038;-1.478;2022-12-24T13:01:22;65487.48;;;8.01;100.00
44675;BME280;30388;52.038;-1.478;2022-12-24T13:04:08;65514.90;;;8.37;100.00